Terminal Aerodrome Forecast
Issued by NWS Goodland, KS

Current Version | Previous Version | Text Only | Print | Product List | Glossary On
Versions: 1 2 3 4 5 6 7 8 9 10 11 12 13 14 15
139
FTUS43 KGLD 280520
TAFGLD
TAF
KGLD 280520Z 2806/2906 14013KT P6SM BKN100
     FM280900 14014G19KT P6SM SCT003 BKN007
     FM281000 14014G20KT 1/2SM -RA FG OVC003
     FM281600 14017G26KT 2SM RA BR OVC007
     FM282100 11018G27KT 2SM RA BR OVC007
     FM282300 10016G23KT 5SM BR VCSH OVC007
     FM290300 07013KT 3SM BR OVC003
      TEMPO 2903/2906 1/2SM FG OVC001=

USA.gov is the U.S. government's official web portal to all federal, state and local government web resources and services.